Flight Track Log - Related Links

Times and Time Zones

All times are in EDT time to prevent confusion due to time zone crossing. See the SKW5564 flight status page for this flight to view local times or setup timezone preferences in your user account.

Time Position Orientation Groundspeed Altitude Reporting Facility
EDT Latitude Longitude Course Direction KTS MPH feet Rate Location/Type
Thu 03:32:50 PM 40.8197 -111.9806 90° East 186 214 5,100  Level Salt Lake Center
Thu 03:33:57 PM 40.8861 -111.9892 354° North 232 267 6,700 1,574 Climbing Salt Lake Center
Thu 03:34:52 PM 40.9544 -111.9972 355° North 275 316 8,300 2,030 Climbing Salt Lake Center
Thu 03:36:10 PM 41.0597 -112.0025 358° North 298 343 11,200 2,100 Climbing Salt Lake Center
Thu 03:37:00 PM 41.0189 -111.6817 149° Southeast  Level FlightAware Approximate
Thu 03:37:12 PM 41.0994 -111.9100 60° Northeast 303 349 13,200  Level Salt Lake Center
Thu 03:38:00 PM 40.9167 -111.5953 90° East  Level FlightAware Approximate
Thu 03:38:14 PM 41.0628 -111.8008 114° Southeast 312 359 14,400  Level Salt Lake Center
Thu 03:39:16 PM 41.0178 -111.6814 117° Southeast 349 402 16,100 1,597 Climbing Salt Lake Center
Thu 03:40:18 PM 40.9711 -111.5625 117° Southeast 362 417 17,700 1,403 Climbing Salt Lake Center
Thu 03:41:20 PM 40.9231 -111.4361 117° Southeast 381 438 19,000 1,415 Climbing Salt Lake Center
Thu 03:42:21 PM 40.8964 -111.2933 104° East 405 466 20,600 1,463 Climbing Salt Lake Center
Thu 03:43:23 PM 40.8786 -111.1458 99° East 409 471 22,000 1,452 Climbing Salt Lake Center
Thu 03:44:25 PM 40.8600 -110.9925 99° East 422 486 23,600 1,403 Climbing Salt Lake Center
Thu 03:45:27 PM 40.8381 -110.8058 99° East 430 495 24,900 968 Climbing Salt Lake Center
Thu 03:46:29 PM 40.8172 -110.6458 100° East 442 509 25,600 823 Climbing Salt Lake Center
Thu 03:47:31 PM 40.7972 -110.4811 99° East 455 524 26,600 1,065 Climbing Salt Lake Center
Thu 03:48:33 PM 40.7736 -110.2956 99° East 460 529 27,800 1,016 Climbing Salt Lake Center
Thu 03:49:35 PM 40.7550 -110.1431 99° East 463 533 28,700 774 Climbing Salt Lake Center
Thu 03:50:37 PM 40.7350 -109.9503 98° East 475 547 29,400 732 Climbing Salt Lake Center
Thu 03:51:38 PM 40.7242 -109.7792 95° East 485 558 30,200 927 Climbing Salt Lake Center
Thu 03:52:40 PM 40.7097 -109.5803 95° East 487 560 31,300 1,016 Climbing Salt Lake Center
Thu 03:53:42 PM 40.6972 -109.4089 95° East 488 562 32,300 919 Climbing Salt Lake Center
Thu 03:54:44 PM 40.6844 -109.2403 96° East 484 557 33,200 971 Climbing Salt Lake Center
Thu 03:55:27 PM 40.6750 -109.0975 95° East 482 555 34,000 1,029 Climbing Denver Center
Thu 03:56:29 PM 40.6614 -108.9311 96° East 480 552 35,000 968 Climbing Denver Center
Thu 03:57:31 PM 40.6472 -108.7642 96° East 478 550 36,000 871 Climbing Denver Center
Thu 03:58:33 PM 40.6319 -108.5719 96° East 472 543 36,800 484 Climbing Denver Center
Thu 03:59:35 PM 40.6153 -108.3747 96° East 482 555 37,000 97 Climbing Denver Center
Thu 04:00:37 PM 40.5997 -108.2028 97° East 491 565 37,000  Level Denver Center
Thu 04:01:39 PM 40.5828 -107.9944 96° East 508 585 37,000  Level Denver Center
Thu 04:02:41 PM 40.5669 -107.8167 97° East 509 586 37,000  Level Denver Center
Thu 04:03:43 PM 40.5500 -107.6378 97° East 513 590 37,000  Level Denver Center
Thu 04:05:47 PM 40.5172 -107.2481 96° East 517 595 37,000  Level Denver Center
Thu 04:06:49 PM 40.5006 -107.0381 96° East 516 594 37,000 -484 Level Denver Center
Thu 04:07:51 PM 40.4842 -106.8514 97° East 514 592 36,000 -1,500 Descending Denver Center
Thu 04:08:53 PM 40.4689 -106.6664 96° East 509 586 33,900 -1,984 Descending Denver Center
Thu 04:09:55 PM 40.4533 -106.4844 96° East 497 572 31,900 -1,985 Descending Denver Center
Thu 04:11:09 PM 40.4375 -106.2944 96° East 471 542 29,400 -2,294 Descending Denver Center
Thu 04:12:11 PM 40.4208 -106.1000 96° East 444 511 26,700 -2,226 Descending Denver Center
Thu 04:13:13 PM 40.4069 -105.9500 97° East 422 486 24,800 -1,694 Descending Denver Center
Thu 04:14:15 PM 40.3936 -105.8106 97° East 390 449 23,200 -1,645 Descending Denver Center
Thu 04:15:17 PM 40.3800 -105.6783 98° East 371 427 21,400 -1,645 Descending Denver Center
Thu 04:16:19 PM 40.3672 -105.5461 97° East 366 421 19,800 -1,742 Descending Denver Center
Thu 04:17:21 PM 40.3514 -105.3947 98° East 373 429 17,800 -1,645 Descending Denver Center
Thu 04:18:23 PM 40.3336 -105.2622 100° East 348 400 16,400 -1,355 Descending Denver Center
Thu 04:19:25 PM 40.3167 -105.1478 101° East 325 374 15,000 -1,248 Descending Denver Center
Thu 04:20:28 PM 40.3022 -105.0389 100° East 308 354 13,800 -1,056 Descending Denver Center
Thu 04:21:30 PM 40.2858 -104.9275 101° East 293 337 12,800 -1,016 Descending Denver Center
Thu 04:22:32 PM 40.2414 -104.8414 124° Southeast 287 330 11,700 -1,147 Descending Denver Center
Thu 04:23:46 PM 40.1733 -104.7867 148° Southeast 268 308 10,200 -1,324 Descending Denver Center
Thu 04:24:48 PM 40.0944 -104.7375 155° Southeast 256 295 8,700 -1,452 Descending Denver Center

Login

Don't have an account? Register now (free) for customized features, flight alerts, and more!